LHA8731 KBFI-CYYC
Flight info
| Callsign | LHA8731 |
|---|---|
| Flight time | 1h 7m |
| Altitude | 31000 |
| Route | FLAAK J505 YXC DCT SIGPA IGVEP7 |
| Aircraft | B77W/H-SDE1E2FGIRWYZ/S |
Departure
| Time | 2026-05-04 09:14 |
|---|---|
| Airport | King County International Airport - Boeing Field (KBFI) |
Arrival
| Time | 2026-05-04 10:21 |
|---|---|
| Airport | Calgary International Airport (CYYC) |
| Time | Latitude | Longitude | Altitude | Speed | Heading |
|---|---|---|---|---|---|
| 2026-05-04 08:40 | 47.53820 | -122.31244 | 29 ft | 0 kts | 59° |
| 2026-05-04 09:01 | 47.53804 | -122.31356 | 29 ft | 0 kts | 95° |
| 2026-05-04 09:04 | 47.53803 | -122.31351 | 29 ft | 5 kts | 100° |
| 2026-05-04 09:04 | 47.53767 | -122.31293 | 29 ft | 8 kts | 146° |
| 2026-05-04 09:04 | 47.53716 | -122.31248 | 29 ft | 8 kts | 149° |
| 2026-05-04 09:05 | 47.53652 | -122.31183 | 29 ft | 14 kts | 136° |
| 2026-05-04 09:05 | 47.53625 | -122.31148 | 29 ft | 14 kts | 142° |
| 2026-05-04 09:05 | 47.53584 | -122.31108 | 29 ft | 14 kts | 149° |
| 2026-05-04 09:05 | 47.53501 | -122.31037 | 29 ft | 14 kts | 150° |
| 2026-05-04 09:06 | 47.53418 | -122.30967 | 28 ft | 14 kts | 150° |
| 2026-05-04 09:07 | 47.52948 | -122.30352 | 28 ft | 17 kts | 150° |
| 2026-05-04 09:08 | 47.52819 | -122.30243 | 28 ft | 23 kts | 150° |
| 2026-05-04 09:08 | 47.52678 | -122.30124 | 27 ft | 23 kts | 150° |
| 2026-05-04 09:08 | 47.52539 | -122.30004 | 27 ft | 23 kts | 151° |
| 2026-05-04 09:08 | 47.52398 | -122.29887 | 28 ft | 23 kts | 150° |
| 2026-05-04 09:09 | 47.52257 | -122.29770 | 29 ft | 23 kts | 150° |
| 2026-05-04 09:09 | 47.52114 | -122.29659 | 29 ft | 23 kts | 151° |
| 2026-05-04 09:09 | 47.51974 | -122.29541 | 28 ft | 23 kts | 150° |
| 2026-05-04 09:09 | 47.51834 | -122.29423 | 28 ft | 23 kts | 150° |
| 2026-05-04 09:10 | 47.51712 | -122.29320 | 28 ft | 15 kts | 150° |
| 2026-05-04 09:10 | 47.51682 | -122.29287 | 28 ft | 5 kts | 128° |
| 2026-05-04 09:10 | 47.51686 | -122.29225 | 29 ft | 7 kts | 58° |
| 2026-05-04 09:10 | 47.51713 | -122.29170 | 29 ft | 7 kts | 38° |
| 2026-05-04 09:11 | 47.51747 | -122.29179 | 29 ft | 0 kts | 326° |
| 2026-05-04 09:12 | 47.51748 | -122.29180 | 28 ft | 5 kts | 326° |
| 2026-05-04 09:12 | 47.52024 | -122.29421 | 27 ft | 91 kts | 330° |
| 2026-05-04 09:14 | 47.60811 | -122.35941 | 3640 ft | 256 kts | 4° |
| 2026-05-04 09:14 | 47.62511 | -122.35112 | 4528 ft | 264 kts | 32° |
| 2026-05-04 09:14 | 47.63789 | -122.33152 | 5428 ft | 270 kts | 58° |
| 2026-05-04 09:14 | 47.64429 | -122.30529 | 6251 ft | 274 kts | 77° |
| 2026-05-04 09:15 | 47.64829 | -122.27728 | 7039 ft | 280 kts | 78° |
| 2026-05-04 09:15 | 47.65213 | -122.24899 | 8036 ft | 279 kts | 78° |
| 2026-05-04 09:15 | 47.65590 | -122.22075 | 8995 ft | 281 kts | 79° |
| 2026-05-04 09:15 | 47.65974 | -122.19206 | 9835 ft | 286 kts | 79° |
| 2026-05-04 09:17 | 47.69840 | -121.90834 | 15638 ft | 385 kts | 77° |
| 2026-05-04 09:18 | 47.70372 | -121.86928 | 16512 ft | 390 kts | 77° |
| 2026-05-04 09:18 | 47.70900 | -121.83043 | 17371 ft | 395 kts | 77° |
| 2026-05-04 09:18 | 47.71443 | -121.79031 | 18224 ft | 400 kts | 77° |
| 2026-05-04 09:18 | 47.71991 | -121.74972 | 18975 ft | 404 kts | 77° |
| 2026-05-04 09:19 | 47.72542 | -121.70877 | 19770 ft | 407 kts | 76° |
| 2026-05-04 09:19 | 47.73114 | -121.66605 | 20607 ft | 410 kts | 76° |
| 2026-05-04 09:19 | 47.73671 | -121.62442 | 21400 ft | 413 kts | 76° |
| 2026-05-04 09:19 | 47.74233 | -121.58249 | 22175 ft | 416 kts | 76° |
| 2026-05-04 09:20 | 47.74794 | -121.54032 | 22924 ft | 420 kts | 76° |
| 2026-05-04 09:20 | 47.75359 | -121.49842 | 23644 ft | 422 kts | 74° |
| 2026-05-04 09:20 | 47.76164 | -121.45654 | 24276 ft | 423 kts | 68° |
| 2026-05-04 09:20 | 47.77239 | -121.41587 | 24897 ft | 425 kts | 63° |
| 2026-05-04 09:21 | 47.78582 | -121.37679 | 25463 ft | 427 kts | 58° |
| 2026-05-04 09:21 | 47.80021 | -121.33813 | 26031 ft | 430 kts | 58° |
| 2026-05-04 09:21 | 47.81478 | -121.29925 | 26634 ft | 432 kts | 58° |
| 2026-05-04 09:21 | 47.82933 | -121.26036 | 27396 ft | 429 kts | 58° |
| 2026-05-04 09:22 | 47.84367 | -121.22176 | 28251 ft | 425 kts | 58° |
| 2026-05-04 09:22 | 47.85784 | -121.18342 | 29062 ft | 423 kts | 58° |
| 2026-05-04 09:22 | 47.87191 | -121.14517 | 29782 ft | 421 kts | 58° |
| 2026-05-04 09:22 | 47.88606 | -121.10654 | 30499 ft | 419 kts | 58° |
| 2026-05-04 09:23 | 47.89998 | -121.06848 | 30937 ft | 419 kts | 58° |
| 2026-05-04 09:23 | 47.91389 | -121.03037 | 30899 ft | 418 kts | 58° |
| 2026-05-04 09:23 | 47.93863 | -120.96239 | 30915 ft | 414 kts | 58° |
| 2026-05-04 09:25 | 48.04888 | -120.65764 | 30889 ft | 417 kts | 58° |
| 2026-05-04 09:26 | 48.07639 | -120.58094 | 30889 ft | 417 kts | 58° |
| 2026-05-04 09:26 | 48.10368 | -120.50477 | 30900 ft | 417 kts | 58° |
| 2026-05-04 09:27 | 48.13094 | -120.42839 | 30900 ft | 417 kts | 58° |
| 2026-05-04 09:27 | 48.15813 | -120.35195 | 30893 ft | 416 kts | 58° |
| 2026-05-04 09:28 | 48.18525 | -120.27552 | 30890 ft | 416 kts | 58° |
| 2026-05-04 09:28 | 48.21227 | -120.19916 | 30886 ft | 415 kts | 58° |
| 2026-05-04 09:29 | 48.23940 | -120.12226 | 30880 ft | 415 kts | 58° |
| 2026-05-04 09:29 | 48.26631 | -120.04576 | 30885 ft | 415 kts | 58° |
| 2026-05-04 09:30 | 48.29323 | -119.96911 | 30862 ft | 416 kts | 58° |
| 2026-05-04 09:30 | 48.32029 | -119.89187 | 30869 ft | 416 kts | 58° |
| 2026-05-04 09:31 | 48.34713 | -119.81505 | 30872 ft | 416 kts | 58° |
| 2026-05-04 09:31 | 48.37385 | -119.73823 | 30881 ft | 415 kts | 58° |
| 2026-05-04 09:32 | 48.40054 | -119.66136 | 30901 ft | 416 kts | 58° |
| 2026-05-04 09:34 | 48.50725 | -119.35161 | 30899 ft | 416 kts | 58° |
| 2026-05-04 09:34 | 48.53376 | -119.27409 | 30867 ft | 417 kts | 58° |
| 2026-05-04 09:35 | 48.56026 | -119.19634 | 30872 ft | 418 kts | 58° |
| 2026-05-04 09:35 | 48.58675 | -119.11842 | 30876 ft | 418 kts | 58° |
| 2026-05-04 09:37 | 48.69238 | -118.80516 | 30879 ft | 418 kts | 58° |
| 2026-05-04 09:38 | 48.71880 | -118.72624 | 30874 ft | 418 kts | 58° |
| 2026-05-04 09:38 | 48.74497 | -118.64778 | 30883 ft | 418 kts | 58° |
| 2026-05-04 09:39 | 48.77113 | -118.56915 | 30886 ft | 419 kts | 58° |
| 2026-05-04 09:39 | 48.79727 | -118.49034 | 30891 ft | 420 kts | 58° |
| 2026-05-04 09:40 | 48.82356 | -118.41083 | 30885 ft | 420 kts | 58° |
| 2026-05-04 09:40 | 48.84961 | -118.33173 | 30875 ft | 420 kts | 58° |
| 2026-05-04 09:42 | 48.95331 | -118.01455 | 30888 ft | 419 kts | 58° |
| 2026-05-04 09:43 | 48.97877 | -117.93511 | 30898 ft | 419 kts | 58° |
| 2026-05-04 09:43 | 49.00405 | -117.85539 | 30912 ft | 419 kts | 58° |
| 2026-05-04 09:44 | 49.02981 | -117.77519 | 30909 ft | 420 kts | 58° |
| 2026-05-04 09:46 | 49.13239 | -117.45406 | 30903 ft | 420 kts | 58° |
| 2026-05-04 09:46 | 49.15776 | -117.37395 | 30927 ft | 420 kts | 58° |
| 2026-05-04 09:47 | 49.18316 | -117.29351 | 30906 ft | 422 kts | 58° |
| 2026-05-04 09:49 | 49.28455 | -116.96952 | 30895 ft | 422 kts | 58° |
| 2026-05-04 09:51 | 49.36816 | -116.69930 | 30899 ft | 421 kts | 58° |
| 2026-05-04 09:51 | 49.39313 | -116.61805 | 30901 ft | 423 kts | 58° |
| 2026-05-04 09:52 | 49.41819 | -116.53634 | 30903 ft | 424 kts | 58° |
| 2026-05-04 09:52 | 49.44330 | -116.45404 | 30910 ft | 423 kts | 58° |
| 2026-05-04 09:53 | 49.46809 | -116.37246 | 30923 ft | 420 kts | 58° |
| 2026-05-04 09:53 | 49.49270 | -116.29137 | 30936 ft | 419 kts | 58° |
| 2026-05-04 09:54 | 49.51748 | -116.20942 | 30936 ft | 420 kts | 58° |
| 2026-05-04 09:54 | 49.54262 | -116.12819 | 30948 ft | 416 kts | 53° |
| 2026-05-04 09:55 | 49.57506 | -116.05576 | 30951 ft | 408 kts | 44° |
| 2026-05-04 09:55 | 49.61371 | -115.99265 | 30978 ft | 405 kts | 39° |
| 2026-05-04 09:56 | 49.65341 | -115.93084 | 30964 ft | 406 kts | 39° |
| 2026-05-04 09:56 | 49.69302 | -115.86871 | 30960 ft | 406 kts | 39° |
| 2026-05-04 09:57 | 49.73245 | -115.80634 | 30963 ft | 406 kts | 39° |
| 2026-05-04 09:57 | 49.77182 | -115.74379 | 30967 ft | 406 kts | 39° |
| 2026-05-04 09:58 | 49.81117 | -115.68109 | 30965 ft | 404 kts | 39° |
| 2026-05-04 09:58 | 49.83046 | -115.65020 | 30950 ft | 393 kts | 39° |
| 2026-05-04 09:58 | 49.84915 | -115.62021 | 30863 ft | 382 kts | 39° |
| 2026-05-04 10:00 | 49.97392 | -115.42004 | 27950 ft | 362 kts | 38° |
| 2026-05-04 10:00 | 49.99144 | -115.39179 | 27572 ft | 360 kts | 38° |
| 2026-05-04 10:02 | 50.11201 | -115.19671 | 24569 ft | 356 kts | 36° |
| 2026-05-04 10:04 | 50.25693 | -115.06464 | 21503 ft | 343 kts | 23° |
| 2026-05-04 10:04 | 50.27770 | -115.04621 | 21071 ft | 343 kts | 22° |
| 2026-05-04 10:04 | 50.29843 | -115.02776 | 20633 ft | 342 kts | 23° |
| 2026-05-04 10:04 | 50.31908 | -115.00935 | 20218 ft | 341 kts | 23° |
| 2026-05-04 10:05 | 50.33968 | -114.99093 | 19791 ft | 341 kts | 23° |
| 2026-05-04 10:05 | 50.36001 | -114.97269 | 19364 ft | 342 kts | 23° |
| 2026-05-04 10:05 | 50.38065 | -114.95419 | 18957 ft | 342 kts | 24° |
| 2026-05-04 10:05 | 50.40157 | -114.93541 | 18522 ft | 342 kts | 24° |
| 2026-05-04 10:06 | 50.42191 | -114.91711 | 18066 ft | 342 kts | 24° |
| 2026-05-04 10:06 | 50.44256 | -114.89850 | 17581 ft | 342 kts | 24° |
| 2026-05-04 10:06 | 50.46318 | -114.87996 | 17121 ft | 341 kts | 24° |
| 2026-05-04 10:08 | 50.58547 | -114.76943 | 14563 ft | 334 kts | 25° |
| 2026-05-04 10:08 | 50.60566 | -114.75112 | 14157 ft | 335 kts | 25° |
| 2026-05-04 10:08 | 50.62586 | -114.73278 | 13690 ft | 335 kts | 25° |
| 2026-05-04 10:08 | 50.64590 | -114.71451 | 13464 ft | 328 kts | 25° |
| 2026-05-04 10:09 | 50.66535 | -114.69673 | 13305 ft | 319 kts | 25° |
| 2026-05-04 10:09 | 50.68429 | -114.67943 | 13157 ft | 310 kts | 25° |
| 2026-05-04 10:09 | 50.70259 | -114.66271 | 13030 ft | 302 kts | 26° |
| 2026-05-04 10:09 | 50.71907 | -114.64260 | 12890 ft | 295 kts | 39° |
| 2026-05-04 10:10 | 50.73302 | -114.61933 | 12630 ft | 292 kts | 41° |
| 2026-05-04 10:10 | 50.74668 | -114.59597 | 12367 ft | 288 kts | 41° |
| 2026-05-04 10:10 | 50.76035 | -114.57303 | 12066 ft | 285 kts | 40° |
| 2026-05-04 10:10 | 50.77392 | -114.55044 | 11765 ft | 282 kts | 39° |
| 2026-05-04 10:11 | 50.78738 | -114.52828 | 11494 ft | 278 kts | 39° |
| 2026-05-04 10:11 | 50.80069 | -114.50645 | 11222 ft | 274 kts | 39° |
| 2026-05-04 10:11 | 50.81381 | -114.48521 | 10966 ft | 269 kts | 38° |
| 2026-05-04 10:11 | 50.82722 | -114.46483 | 10708 ft | 265 kts | 37° |
| 2026-05-04 10:12 | 50.84033 | -114.44512 | 10466 ft | 262 kts | 37° |
| 2026-05-04 10:12 | 50.85359 | -114.42514 | 10216 ft | 259 kts | 37° |
| 2026-05-04 10:12 | 50.86634 | -114.40581 | 9968 ft | 255 kts | 37° |
| 2026-05-04 10:12 | 50.87922 | -114.38623 | 9696 ft | 252 kts | 38° |
| 2026-05-04 10:13 | 50.89168 | -114.36727 | 9467 ft | 251 kts | 38° |
| 2026-05-04 10:13 | 50.90419 | -114.34819 | 9220 ft | 248 kts | 38° |
| 2026-05-04 10:13 | 50.91427 | -114.32647 | 8959 ft | 248 kts | 65° |
| 2026-05-04 10:13 | 50.91679 | -114.29926 | 8861 ft | 256 kts | 86° |
| 2026-05-04 10:14 | 50.91593 | -114.27033 | 8704 ft | 261 kts | 87° |
| 2026-05-04 10:14 | 50.91507 | -114.24184 | 8514 ft | 263 kts | 87° |
| 2026-05-04 10:16 | 50.91369 | -114.04510 | 8027 ft | 239 kts | 49° |
| 2026-05-04 10:16 | 50.92555 | -114.02863 | 7940 ft | 217 kts | 18° |
| 2026-05-04 10:16 | 50.93930 | -114.02381 | 7565 ft | 191 kts | 2° |
| 2026-05-04 10:16 | 50.95174 | -114.02207 | 7179 ft | 171 kts | 359° |
| 2026-05-04 10:17 | 50.96323 | -114.02159 | 6762 ft | 156 kts | 357° |
| 2026-05-04 10:17 | 50.97360 | -114.02148 | 6467 ft | 145 kts | 357° |
| 2026-05-04 10:19 | 51.03758 | -114.02135 | 4804 ft | 126 kts | 1° |
| 2026-05-04 10:19 | 51.04601 | -114.02137 | 4647 ft | 125 kts | 1° |
| 2026-05-04 10:19 | 51.05515 | -114.02138 | 4457 ft | 134 kts | 0° |
| 2026-05-04 10:19 | 51.06446 | -114.02135 | 4229 ft | 131 kts | 360° |
| 2026-05-04 10:20 | 51.07375 | -114.02133 | 4100 ft | 137 kts | 359° |
| 2026-05-04 10:20 | 51.08337 | -114.02130 | 3944 ft | 143 kts | 359° |
| 2026-05-04 10:20 | 51.09343 | -114.02137 | 3684 ft | 144 kts | 359° |
| 2026-05-04 10:20 | 51.10311 | -114.02138 | 3566 ft | 129 kts | 359° |
| 2026-05-04 10:21 | 51.11106 | -114.02136 | 3560 ft | 97 kts | 0° |
| 2026-05-04 10:21 | 51.11659 | -114.02136 | 3551 ft | 65 kts | 360° |
| 2026-05-04 10:21 | 51.12067 | -114.02135 | 3553 ft | 52 kts | 0° |
| 2026-05-04 10:21 | 51.12391 | -114.02135 | 3548 ft | 41 kts | 360° |
| 2026-05-04 10:22 | 51.12802 | -114.02017 | 3544 ft | 18 kts | 28° |
| 2026-05-04 10:22 | 51.12888 | -114.01911 | 3542 ft | 11 kts | 63° |
| 2026-05-04 10:22 | 51.12895 | -114.01853 | 3542 ft | 5 kts | 85° |
| 2026-05-04 10:23 | 51.12895 | -114.01786 | 3545 ft | 7 kts | 90° |
| 2026-05-04 10:23 | 51.12895 | -114.01688 | 3546 ft | 10 kts | 91° |
| 2026-05-04 10:25 | 51.12788 | -114.01029 | 3552 ft | 10 kts | 125° |
| 2026-05-04 10:25 | 51.12755 | -114.00912 | 3553 ft | 14 kts | 101° |
| 2026-05-04 10:25 | 51.12744 | -114.00739 | 3556 ft | 15 kts | 91° |
| 2026-05-04 10:25 | 51.12709 | -114.00595 | 3558 ft | 14 kts | 106° |
| 2026-05-04 10:26 | 51.12704 | -114.00441 | 3559 ft | 14 kts | 90° |
| 2026-05-04 10:26 | 51.12705 | -114.00308 | 3560 ft | 8 kts | 81° |
| 2026-05-04 10:26 | 51.12732 | -114.00237 | 3559 ft | 7 kts | 50° |
| 2026-05-04 10:26 | 51.12773 | -114.00190 | 3558 ft | 7 kts | 22° |
| 2026-05-04 10:27 | 51.12821 | -114.00202 | 3559 ft | 7 kts | 312° |
| 2026-05-04 10:27 | 51.12825 | -114.00272 | 3560 ft | 4 kts | 271° |
| 2026-05-04 10:27 | 51.12824 | -114.00308 | 3559 ft | 0 kts | 268° |